sensor_id;sensor_type;location;lat;lon;timestamp;temperature;humidity
59977;DHT22;45837;51.076;3.578;2023-03-01T00:00:20;20.20;44.70
59977;DHT22;45837;51.076;3.578;2023-03-01T00:02:46;20.20;44.80
59977;DHT22;45837;51.076;3.578;2023-03-01T00:05:12;20.20;44.80
59977;DHT22;45837;51.076;3.578;2023-03-01T00:07:37;20.20;44.80
59977;DHT22;45837;51.076;3.578;2023-03-01T00:10:03;20.20;44.80
59977;DHT22;45837;51.076;3.578;2023-03-01T00:12:30;20.10;44.80
59977;DHT22;45837;51.076;3.578;2023-03-01T00:14:56;20.10;44.80
59977;DHT22;45837;51.076;3.578;2023-03-01T00:17:22;20.00;44.80
59977;DHT22;45837;51.076;3.578;2023-03-01T00:19:48;20.00;44.90
59977;DHT22;45837;51.076;3.578;2023-03-01T00:22:13;20.00;44.90
59977;DHT22;45837;51.076;3.578;2023-03-01T00:24:39;20.00;44.90
59977;DHT22;45837;51.076;3.578;2023-03-01T00:27:05;19.90;44.90
59977;DHT22;45837;51.076;3.578;2023-03-01T00:29:31;19.90;44.90
59977;DHT22;45837;51.076;3.578;2023-03-01T00:31:56;19.90;44.90
59977;DHT22;45837;51.076;3.578;2023-03-01T00:34:22;19.90;45.00
59977;DHT22;45837;51.076;3.578;2023-03-01T00:36:48;19.80;44.90
59977;DHT22;45837;51.076;3.578;2023-03-01T00:39:14;19.80;45.00
59977;DHT22;45837;51.076;3.578;2023-03-01T00:41:40;19.80;45.00
59977;DHT22;45837;51.076;3.578;2023-03-01T00:44:07;19.80;45.00
59977;DHT22;45837;51.076;3.578;2023-03-01T00:46:34;19.70;45.00
59977;DHT22;45837;51.076;3.578;2023-03-01T00:49:00;19.70;45.10
59977;DHT22;45837;51.076;3.578;2023-03-01T00:51:27;19.70;45.10
59977;DHT22;45837;51.076;3.578;2023-03-01T00:53:57;19.70;45.10
59977;DHT22;45837;51.076;3.578;2023-03-01T00:56:24;19.60;45.20
59977;DHT22;45837;51.076;3.578;2023-03-01T00:58:50;19.60;45.20
59977;DHT22;45837;51.076;3.578;2023-03-01T01:01:20;19.50;45.40
59977;DHT22;45837;51.076;3.578;2023-03-01T01:03:56;19.50;45.40
59977;DHT22;45837;51.076;3.578;2023-03-01T01:06:26;19.50;45.50
59977;DHT22;45837;51.076;3.578;2023-03-01T01:08:52;19.50;45.50
59977;DHT22;45837;51.076;3.578;2023-03-01T01:11:18;19.50;45.40
59977;DHT22;45837;51.076;3.578;2023-03-01T01:13:45;19.40;45.40
59977;DHT22;45837;51.076;3.578;2023-03-01T01:16:11;19.50;45.40
59977;DHT22;45837;51.076;3.578;2023-03-01T01:18:37;19.40;45.50
59977;DHT22;45837;51.076;3.578;2023-03-01T01:21:07;19.40;45.50
59977;DHT22;45837;51.076;3.578;2023-03-01T01:23:34;19.40;45.50
59977;DHT22;45837;51.076;3.578;2023-03-01T01:26:03;19.40;45.50
59977;DHT22;45837;51.076;3.578;2023-03-01T01:28:29;19.40;45.50
59977;DHT22;45837;51.076;3.578;2023-03-01T01:30:55;19.40;45.50
59977;DHT22;45837;51.076;3.578;2023-03-01T01:33:21;19.30;45.40
59977;DHT22;45837;51.076;3.578;2023-03-01T01:35:46;19.30;45.40
59977;DHT22;45837;51.076;3.578;2023-03-01T01:38:12;19.30;45.50
59977;DHT22;45837;51.076;3.578;2023-03-01T01:40:45;19.30;45.40
59977;DHT22;45837;51.076;3.578;2023-03-01T01:43:21;19.30;45.40
59977;DHT22;45837;51.076;3.578;2023-03-01T01:45:48;19.30;45.40
59977;DHT22;45837;51.076;3.578;2023-03-01T01:48:16;19.30;45.40
59977;DHT22;45837;51.076;3.578;2023-03-01T01:50:42;19.30;45.30
59977;DHT22;45837;51.076;3.578;2023-03-01T01:53:11;19.30;45.30
59977;DHT22;45837;51.076;3.578;2023-03-01T01:55:45;19.30;45.40
59977;DHT22;45837;51.076;3.578;2023-03-01T01:58:14;19.20;45.40
59977;DHT22;45837;51.076;3.578;2023-03-01T02:00:41;19.20;45.30
59977;DHT22;45837;51.076;3.578;2023-03-01T02:03:11;19.20;45.40
59977;DHT22;45837;51.076;3.578;2023-03-01T02:06:00;19.20;45.30
59977;DHT22;45837;51.076;3.578;2023-03-01T02:08:25;19.20;45.30
59977;DHT22;45837;51.076;3.578;2023-03-01T02:10:51;19.20;45.30
59977;DHT22;45837;51.076;3.578;2023-03-01T02:13:18;19.10;45.20
59977;DHT22;45837;51.076;3.578;2023-03-01T02:15:44;19.20;45.30
59977;DHT22;45837;51.076;3.578;2023-03-01T02:18:10;19.10;45.30
59977;DHT22;45837;51.076;3.578;2023-03-01T02:23:03;19.00;45.30
59977;DHT22;45837;51.076;3.578;2023-03-01T02:30:38;19.00;45.80
59977;DHT22;45837;51.076;3.578;2023-03-01T02:33:25;19.00;45.30
59977;DHT22;45837;51.076;3.578;2023-03-01T02:35:51;19.00;45.30
59977;DHT22;45837;51.076;3.578;2023-03-01T02:38:18;19.00;45.30
59977;DHT22;45837;51.076;3.578;2023-03-01T02:40:45;18.90;45.20
59977;DHT22;45837;51.076;3.578;2023-03-01T02:43:11;19.00;45.30
59977;DHT22;45837;51.076;3.578;2023-03-01T02:45:43;18.90;45.20
59977;DHT22;45837;51.076;3.578;2023-03-01T02:48:12;18.90;45.10
59977;DHT22;45837;51.076;3.578;2023-03-01T02:51:13;18.90;45.20
59977;DHT22;45837;51.076;3.578;2023-03-01T02:53:41;18.90;45.20
59977;DHT22;45837;51.076;3.578;2023-03-01T02:56:14;18.90;45.00
59977;DHT22;45837;51.076;3.578;2023-03-01T02:58:41;18.80;45.00
59977;DHT22;45837;51.076;3.578;2023-03-01T03:01:12;18.80;45.00
59977;DHT22;45837;51.076;3.578;2023-03-01T03:03:41;18.80;45.00
59977;DHT22;45837;51.076;3.578;2023-03-01T03:06:07;18.80;45.10
59977;DHT22;45837;51.076;3.578;2023-03-01T03:08:33;18.80;45.10
59977;DHT22;45837;51.076;3.578;2023-03-01T03:10:59;18.80;45.10
59977;DHT22;45837;51.076;3.578;2023-03-01T03:13:26;18.80;45.00
59977;DHT22;45837;51.076;3.578;2023-03-01T03:15:55;18.80;45.00
59977;DHT22;45837;51.076;3.578;2023-03-01T03:18:21;18.80;45.00
59977;DHT22;45837;51.076;3.578;2023-03-01T03:20:47;18.80;45.00
59977;DHT22;45837;51.076;3.578;2023-03-01T03:23:18;18.70;45.00
59977;DHT22;45837;51.076;3.578;2023-03-01T03:25:44;18.70;44.90
59977;DHT22;45837;51.076;3.578;2023-03-01T03:28:09;18.70;44.90
59977;DHT22;45837;51.076;3.578;2023-03-01T03:30:36;18.70;45.00
59977;DHT22;45837;51.076;3.578;2023-03-01T03:33:04;18.70;44.90
59977;DHT22;45837;51.076;3.578;2023-03-01T03:35:37;18.70;45.00
59977;DHT22;45837;51.076;3.578;2023-03-01T03:38:05;18.70;44.90
59977;DHT22;45837;51.076;3.578;2023-03-01T03:43:37;18.70;44.90
59977;DHT22;45837;51.076;3.578;2023-03-01T03:46:03;18.70;44.90
59977;DHT22;45837;51.076;3.578;2023-03-01T03:48:35;18.60;44.90
59977;DHT22;45837;51.076;3.578;2023-03-01T03:51:01;18.60;44.90
59977;DHT22;45837;51.076;3.578;2023-03-01T03:53:27;18.60;44.90
59977;DHT22;45837;51.076;3.578;2023-03-01T03:55:54;18.60;44.90
59977;DHT22;45837;51.076;3.578;2023-03-01T03:58:22;18.60;44.90
59977;DHT22;45837;51.076;3.578;2023-03-01T04:00:49;18.60;44.90
59977;DHT22;45837;51.076;3.578;2023-03-01T04:03:15;18.60;44.90
59977;DHT22;45837;51.076;3.578;2023-03-01T04:05:42;18.50;44.80
59977;DHT22;45837;51.076;3.578;2023-03-01T04:08:08;18.60;44.90
59977;DHT22;45837;51.076;3.578;2023-03-01T04:10:35;18.50;44.80
59977;DHT22;45837;51.076;3.578;2023-03-01T04:13:02;18.60;44.80
59977;DHT22;45837;51.076;3.578;2023-03-01T04:15:27;18.50;44.80
59977;DHT22;45837;51.076;3.578;2023-03-01T04:17:53;18.50;44.80
59977;DHT22;45837;51.076;3.578;2023-03-01T04:20:21;18.50;44.80
59977;DHT22;45837;51.076;3.578;2023-03-01T04:22:56;18.50;44.80
59977;DHT22;45837;51.076;3.578;2023-03-01T04:25:23;18.50;44.80
59977;DHT22;45837;51.076;3.578;2023-03-01T04:27:51;18.50;44.90
59977;DHT22;45837;51.076;3.578;2023-03-01T04:30:17;18.40;44.80
59977;DHT22;45837;51.076;3.578;2023-03-01T04:32:42;18.40;44.80
59977;DHT22;45837;51.076;3.578;2023-03-01T04:35:08;18.30;44.80
59977;DHT22;45837;51.076;3.578;2023-03-01T04:37:34;18.40;44.90
59977;DHT22;45837;51.076;3.578;2023-03-01T04:40:01;18.40;44.90
59977;DHT22;45837;51.076;3.578;2023-03-01T04:42:33;18.40;44.90
59977;DHT22;45837;51.076;3.578;2023-03-01T04:44:59;18.40;44.90
59977;DHT22;45837;51.076;3.578;2023-03-01T04:47:24;18.40;44.90
59977;DHT22;45837;51.076;3.578;2023-03-01T04:49:50;18.40;44.90
59977;DHT22;45837;51.076;3.578;2023-03-01T04:52:15;18.40;44.90
59977;DHT22;45837;51.076;3.578;2023-03-01T04:54:41;18.30;44.90
59977;DHT22;45837;51.076;3.578;2023-03-01T04:57:08;18.30;44.90
59977;DHT22;45837;51.076;3.578;2023-03-01T04:59:34;18.20;44.80
59977;DHT22;45837;51.076;3.578;2023-03-01T05:02:01;18.30;44.90
59977;DHT22;45837;51.076;3.578;2023-03-01T05:04:27;18.30;44.90
59977;DHT22;45837;51.076;3.578;2023-03-01T05:06:53;18.30;44.90
59977;DHT22;45837;51.076;3.578;2023-03-01T05:09:19;18.30;44.90
59977;DHT22;45837;51.076;3.578;2023-03-01T05:11:44;18.20;44.90
59977;DHT22;45837;51.076;3.578;2023-03-01T05:14:10;18.20;44.90
59977;DHT22;45837;51.076;3.578;2023-03-01T05:16:36;18.20;44.90
59977;DHT22;45837;51.076;3.578;2023-03-01T05:19:02;18.20;44.90
59977;DHT22;45837;51.076;3.578;2023-03-01T05:21:39;18.10;45.10
59977;DHT22;45837;51.076;3.578;2023-03-01T05:24:26;18.10;45.30
59977;DHT22;45837;51.076;3.578;2023-03-01T05:26:54;18.20;45.10
59977;DHT22;45837;51.076;3.578;2023-03-01T05:29:20;18.20;45.30
59977;DHT22;45837;51.076;3.578;2023-03-01T05:31:53;18.30;45.20
59977;DHT22;45837;51.076;3.578;2023-03-01T05:34:26;18.30;45.20
59977;DHT22;45837;51.076;3.578;2023-03-01T05:36:53;18.40;45.20
59977;DHT22;45837;51.076;3.578;2023-03-01T05:39:19;18.40;45.10
59977;DHT22;45837;51.076;3.578;2023-03-01T05:41:46;18.50;45.30
59977;DHT22;45837;51.076;3.578;2023-03-01T05:44:12;18.50;45.30
59977;DHT22;45837;51.076;3.578;2023-03-01T05:46:38;18.50;45.20
59977;DHT22;45837;51.076;3.578;2023-03-01T05:49:03;18.50;45.20
59977;DHT22;45837;51.076;3.578;2023-03-01T05:51:29;18.60;45.30
59977;DHT22;45837;51.076;3.578;2023-03-01T05:53:55;18.60;45.30
59977;DHT22;45837;51.076;3.578;2023-03-01T05:56:21;18.60;45.20
59977;DHT22;45837;51.076;3.578;2023-03-01T05:58:48;18.70;45.10
59977;DHT22;45837;51.076;3.578;2023-03-01T06:01:13;18.80;45.10
59977;DHT22;45837;51.076;3.578;2023-03-01T06:03:39;18.80;45.00
59977;DHT22;45837;51.076;3.578;2023-03-01T06:06:05;18.90;44.90
59977;DHT22;45837;51.076;3.578;2023-03-01T06:08:30;19.00;44.80
59977;DHT22;45837;51.076;3.578;2023-03-01T06:10:56;19.00;44.60
59977;DHT22;45837;51.076;3.578;2023-03-01T06:13:23;19.20;44.40
59977;DHT22;45837;51.076;3.578;2023-03-01T06:15:49;19.40;44.20
59977;DHT22;45837;51.076;3.578;2023-03-01T06:18:14;19.40;43.90
59977;DHT22;45837;51.076;3.578;2023-03-01T06:20:40;19.50;43.80
59977;DHT22;45837;51.076;3.578;2023-03-01T06:23:06;19.50;44.10
59977;DHT22;45837;51.076;3.578;2023-03-01T06:25:32;19.50;44.40
59977;DHT22;45837;51.076;3.578;2023-03-01T06:27:57;19.60;44.40
59977;DHT22;45837;51.076;3.578;2023-03-01T06:30:24;19.70;44.30
59977;DHT22;45837;51.076;3.578;2023-03-01T06:32:50;19.80;44.30
59977;DHT22;45837;51.076;3.578;2023-03-01T06:35:16;20.00;44.20
59977;DHT22;45837;51.076;3.578;2023-03-01T06:37:43;20.10;44.10
59977;DHT22;45837;51.076;3.578;2023-03-01T06:40:09;20.10;44.20
59977;DHT22;45837;51.076;3.578;2023-03-01T06:42:37;20.20;44.00
59977;DHT22;45837;51.076;3.578;2023-03-01T06:45:04;20.20;44.00
59977;DHT22;45837;51.076;3.578;2023-03-01T06:47:30;20.30;43.70
59977;DHT22;45837;51.076;3.578;2023-03-01T06:49:56;20.40;43.60
59977;DHT22;45837;51.076;3.578;2023-03-01T06:52:21;20.40;43.50
59977;DHT22;45837;51.076;3.578;2023-03-01T06:54:47;20.50;43.60
59977;DHT22;45837;51.076;3.578;2023-03-01T06:57:13;20.50;43.50
59977;DHT22;45837;51.076;3.578;2023-03-01T06:59:38;20.50;43.50
59977;DHT22;45837;51.076;3.578;2023-03-01T07:02:04;20.50;43.60
59977;DHT22;45837;51.076;3.578;2023-03-01T07:04:30;20.50;43.10
59977;DHT22;45837;51.076;3.578;2023-03-01T07:06:55;20.60;42.60
59977;DHT22;45837;51.076;3.578;2023-03-01T07:09:22;20.50;42.60
59977;DHT22;45837;51.076;3.578;2023-03-01T07:11:48;20.50;42.30
59977;DHT22;45837;51.076;3.578;2023-03-01T07:14:13;20.50;41.90
59977;DHT22;45837;51.076;3.578;2023-03-01T07:16:39;20.50;41.70
59977;DHT22;45837;51.076;3.578;2023-03-01T07:19:05;20.50;41.40
59977;DHT22;45837;51.076;3.578;2023-03-01T07:21:31;20.40;41.00
59977;DHT22;45837;51.076;3.578;2023-03-01T07:23:56;20.40;40.80
59977;DHT22;45837;51.076;3.578;2023-03-01T07:26:22;20.40;40.50
59977;DHT22;45837;51.076;3.578;2023-03-01T07:28:48;20.40;40.30
59977;DHT22;45837;51.076;3.578;2023-03-01T07:31:14;20.40;40.10
59977;DHT22;45837;51.076;3.578;2023-03-01T07:33:39;20.30;39.90
59977;DHT22;45837;51.076;3.578;2023-03-01T07:36:05;20.30;39.90
59977;DHT22;45837;51.076;3.578;2023-03-01T07:38:31;20.30;39.80
59977;DHT22;45837;51.076;3.578;2023-03-01T07:40:58;20.20;39.70
59977;DHT22;45837;51.076;3.578;2023-03-01T07:43:24;20.20;39.60
59977;DHT22;45837;51.076;3.578;2023-03-01T07:45:50;20.10;39.60
59977;DHT22;45837;51.076;3.578;2023-03-01T07:48:15;20.10;39.50
59977;DHT22;45837;51.076;3.578;2023-03-01T07:50:41;20.10;39.50
59977;DHT22;45837;51.076;3.578;2023-03-01T07:53:07;20.00;39.50
59977;DHT22;45837;51.076;3.578;2023-03-01T07:55:33;20.00;39.50
59977;DHT22;45837;51.076;3.578;2023-03-01T07:57:59;19.90;39.30
59977;DHT22;45837;51.076;3.578;2023-03-01T08:00:25;19.90;39.40
59977;DHT22;45837;51.076;3.578;2023-03-01T08:02:51;19.90;39.30
59977;DHT22;45837;51.076;3.578;2023-03-01T08:05:16;19.80;39.30
59977;DHT22;45837;51.076;3.578;2023-03-01T08:07:42;19.80;39.20
59977;DHT22;45837;51.076;3.578;2023-03-01T08:10:08;19.80;39.20
59977;DHT22;45837;51.076;3.578;2023-03-01T08:12:34;19.60;39.10
59977;DHT22;45837;51.076;3.578;2023-03-01T08:14:59;19.80;40.60
59977;DHT22;45837;51.076;3.578;2023-03-01T08:17:25;19.70;39.30
59977;DHT22;45837;51.076;3.578;2023-03-01T08:19:51;19.80;39.20
59977;DHT22;45837;51.076;3.578;2023-03-01T08:22:16;19.80;40.90
59977;DHT22;45837;51.076;3.578;2023-03-01T08:24:42;20.00;41.20
59977;DHT22;45837;51.076;3.578;2023-03-01T08:27:08;19.70;39.80
59977;DHT22;45837;51.076;3.578;2023-03-01T08:29:34;19.80;40.40
59977;DHT22;45837;51.076;3.578;2023-03-01T08:32:00;19.80;40.20
59977;DHT22;45837;51.076;3.578;2023-03-01T08:34:25;19.80;40.60
59977;DHT22;45837;51.076;3.578;2023-03-01T08:36:51;19.80;42.10
59977;DHT22;45837;51.076;3.578;2023-03-01T08:39:18;19.90;42.00
59977;DHT22;45837;51.076;3.578;2023-03-01T08:41:44;19.90;42.00
59977;DHT22;45837;51.076;3.578;2023-03-01T08:44:11;20.00;42.00
59977;DHT22;45837;51.076;3.578;2023-03-01T08:46:38;20.10;42.10
59977;DHT22;45837;51.076;3.578;2023-03-01T08:49:06;20.20;42.30
59977;DHT22;45837;51.076;3.578;2023-03-01T08:51:32;20.30;42.10
59977;DHT22;45837;51.076;3.578;2023-03-01T08:54:04;20.40;42.30
59977;DHT22;45837;51.076;3.578;2023-03-01T08:56:30;20.40;42.20
59977;DHT22;45837;51.076;3.578;2023-03-01T08:58:56;20.50;42.30
59977;DHT22;45837;51.076;3.578;2023-03-01T09:01:22;20.60;42.70
59977;DHT22;45837;51.076;3.578;2023-03-01T09:03:47;20.70;42.50
59977;DHT22;45837;51.076;3.578;2023-03-01T09:06:13;20.70;42.30
59977;DHT22;45837;51.076;3.578;2023-03-01T09:08:41;20.90;42.00
59977;DHT22;45837;51.076;3.578;2023-03-01T09:11:07;20.90;42.60
59977;DHT22;45837;51.076;3.578;2023-03-01T09:13:33;20.90;41.60
59977;DHT22;45837;51.076;3.578;2023-03-01T09:16:02;20.90;41.60
59977;DHT22;45837;51.076;3.578;2023-03-01T09:18:28;20.80;42.30
59977;DHT22;45837;51.076;3.578;2023-03-01T09:23:35;21.00;42.50
59977;DHT22;45837;51.076;3.578;2023-03-01T09:26:02;21.00;42.00
59977;DHT22;45837;51.076;3.578;2023-03-01T09:28:28;21.00;42.70
59977;DHT22;45837;51.076;3.578;2023-03-01T09:30:57;21.00;43.50
59977;DHT22;45837;51.076;3.578;2023-03-01T09:33:23;21.00;42.20
59977;DHT22;45837;51.076;3.578;2023-03-01T09:35:48;21.00;43.60
59977;DHT22;45837;51.076;3.578;2023-03-01T09:38:14;21.10;43.90
59977;DHT22;45837;51.076;3.578;2023-03-01T09:40:43;21.00;44.10
59977;DHT22;45837;51.076;3.578;2023-03-01T09:45:56;21.00;43.10
59977;DHT22;45837;51.076;3.578;2023-03-01T09:48:25;21.00;43.30
59977;DHT22;45837;51.076;3.578;2023-03-01T09:50:52;21.00;43.40
59977;DHT22;45837;51.076;3.578;2023-03-01T09:53:22;21.00;42.60
59977;DHT22;45837;51.076;3.578;2023-03-01T09:55:50;21.00;43.10
59977;DHT22;45837;51.076;3.578;2023-03-01T09:58:27;21.10;43.30
59977;DHT22;45837;51.076;3.578;2023-03-01T10:00:54;21.10;43.00
59977;DHT22;45837;51.076;3.578;2023-03-01T10:03:26;21.10;42.50
59977;DHT22;45837;51.076;3.578;2023-03-01T10:08:37;21.10;44.10
59977;DHT22;45837;51.076;3.578;2023-03-01T10:11:05;21.10;43.10
59977;DHT22;45837;51.076;3.578;2023-03-01T10:13:52;21.20;43.50
59977;DHT22;45837;51.076;3.578;2023-03-01T10:16:26;21.10;43.40
59977;DHT22;45837;51.076;3.578;2023-03-01T10:18:53;21.10;43.50
59977;DHT22;45837;51.076;3.578;2023-03-01T10:21:20;21.10;43.80
59977;DHT22;45837;51.076;3.578;2023-03-01T10:23:46;21.20;43.80
59977;DHT22;45837;51.076;3.578;2023-03-01T10:26:22;21.20;43.40
59977;DHT22;45837;51.076;3.578;2023-03-01T10:29:01;21.20;43.20
59977;DHT22;45837;51.076;3.578;2023-03-01T10:31:52;21.20;43.30
59977;DHT22;45837;51.076;3.578;2023-03-01T10:36:42;21.20;44.60
59977;DHT22;45837;51.076;3.578;2023-03-01T10:39:12;21.10;44.10
59977;DHT22;45837;51.076;3.578;2023-03-01T10:41:44;21.10;43.50
59977;DHT22;45837;51.076;3.578;2023-03-01T10:44:34;21.20;43.60
59977;DHT22;45837;51.076;3.578;2023-03-01T10:47:00;21.20;43.50
59977;DHT22;45837;51.076;3.578;2023-03-01T10:49:26;21.30;43.50
59977;DHT22;45837;51.076;3.578;2023-03-01T10:51:53;21.30;43.80
59977;DHT22;45837;51.076;3.578;2023-03-01T10:59:27;21.20;42.60
59977;DHT22;45837;51.076;3.578;2023-03-01T11:04:38;21.30;41.20
59977;DHT22;45837;51.076;3.578;2023-03-01T11:07:04;21.30;40.50
59977;DHT22;45837;51.076;3.578;2023-03-01T11:09:33;21.30;40.60
59977;DHT22;45837;51.076;3.578;2023-03-01T11:12:11;21.30;39.60
59977;DHT22;45837;51.076;3.578;2023-03-01T11:14:39;21.30;39.50
59977;DHT22;45837;51.076;3.578;2023-03-01T11:19:43;21.20;38.30
59977;DHT22;45837;51.076;3.578;2023-03-01T11:22:12;21.20;39.30
59977;DHT22;45837;51.076;3.578;2023-03-01T11:24:40;21.10;38.10
59977;DHT22;45837;51.076;3.578;2023-03-01T11:27:21;21.10;37.70
59977;DHT22;45837;51.076;3.578;2023-03-01T11:29:58;21.10;37.40
59977;DHT22;45837;51.076;3.578;2023-03-01T11:32:26;21.10;37.50
59977;DHT22;45837;51.076;3.578;2023-03-01T11:34:54;21.00;37.20
59977;DHT22;45837;51.076;3.578;2023-03-01T11:40:27;20.90;36.20
59977;DHT22;45837;51.076;3.578;2023-03-01T11:43:56;20.90;35.90
59977;DHT22;45837;51.076;3.578;2023-03-01T11:50:50;20.90;36.40
59977;DHT22;45837;51.076;3.578;2023-03-01T11:53:29;20.70;36.50
59977;DHT22;45837;51.076;3.578;2023-03-01T11:58:27;20.60;38.00
59977;DHT22;45837;51.076;3.578;2023-03-01T12:01:19;20.60;36.70
59977;DHT22;45837;51.076;3.578;2023-03-01T12:03:54;20.60;36.80
59977;DHT22;45837;51.076;3.578;2023-03-01T12:14:12;20.60;37.20
59977;DHT22;45837;51.076;3.578;2023-03-01T12:19:38;20.70;37.70
59977;DHT22;45837;51.076;3.578;2023-03-01T12:35:24;20.80;39.60
59977;DHT22;45837;51.076;3.578;2023-03-01T12:37:54;20.80;39.80
59977;DHT22;45837;51.076;3.578;2023-03-01T12:42:57;21.00;40.80
59977;DHT22;45837;51.076;3.578;2023-03-01T12:48:24;21.10;40.20
59977;DHT22;45837;51.076;3.578;2023-03-01T12:50:54;21.10;40.40
59977;DHT22;45837;51.076;3.578;2023-03-01T12:55:53;21.20;40.80
59977;DHT22;45837;51.076;3.578;2023-03-01T13:06:01;21.00;41.20
59977;DHT22;45837;51.076;3.578;2023-03-01T13:11:01;21.00;42.70
59977;DHT22;45837;51.076;3.578;2023-03-01T13:13:29;21.00;41.60
59977;DHT22;45837;51.076;3.578;2023-03-01T13:15:55;21.00;41.20
59977;DHT22;45837;51.076;3.578;2023-03-01T13:20:56;21.00;40.80
59977;DHT22;45837;51.076;3.578;2023-03-01T13:23:25;20.80;37.70
59977;DHT22;45837;51.076;3.578;2023-03-01T13:31:06;20.50;36.50
59977;DHT22;45837;51.076;3.578;2023-03-01T13:36:01;20.30;34.10
59977;DHT22;45837;51.076;3.578;2023-03-01T13:41:16;20.20;33.00
59977;DHT22;45837;51.076;3.578;2023-03-01T13:43:43;20.20;33.40
59977;DHT22;45837;51.076;3.578;2023-03-01T13:46:22;20.10;32.00
59977;DHT22;45837;51.076;3.578;2023-03-01T13:48:53;20.20;31.00
59977;DHT22;45837;51.076;3.578;2023-03-01T13:51:23;20.00;29.80
59977;DHT22;45837;51.076;3.578;2023-03-01T13:53:50;19.90;30.60
59977;DHT22;45837;51.076;3.578;2023-03-01T13:56:17;19.80;31.40
59977;DHT22;45837;51.076;3.578;2023-03-01T14:01:21;19.80;31.70
59977;DHT22;45837;51.076;3.578;2023-03-01T14:03:47;19.80;32.00
59977;DHT22;45837;51.076;3.578;2023-03-01T14:06:14;19.80;33.20
59977;DHT22;45837;51.076;3.578;2023-03-01T14:08:41;19.90;33.00
59977;DHT22;45837;51.076;3.578;2023-03-01T14:19:01;19.90;32.40
59977;DHT22;45837;51.076;3.578;2023-03-01T14:21:30;19.90;32.40
59977;DHT22;45837;51.076;3.578;2023-03-01T14:23:56;19.80;32.80
59977;DHT22;45837;51.076;3.578;2023-03-01T14:26:22;19.80;33.10
59977;DHT22;45837;51.076;3.578;2023-03-01T14:28:48;19.80;33.20
59977;DHT22;45837;51.076;3.578;2023-03-01T14:31:29;19.80;33.20
59977;DHT22;45837;51.076;3.578;2023-03-01T14:33:57;19.80;33.30
59977;DHT22;45837;51.076;3.578;2023-03-01T14:36:27;19.80;33.50
59977;DHT22;45837;51.076;3.578;2023-03-01T14:38:53;19.80;33.50
59977;DHT22;45837;51.076;3.578;2023-03-01T14:41:23;19.80;33.70
59977;DHT22;45837;51.076;3.578;2023-03-01T14:43:59;19.70;33.70
59977;DHT22;45837;51.076;3.578;2023-03-01T14:46:26;19.80;33.90
59977;DHT22;45837;51.076;3.578;2023-03-01T14:48:55;19.80;34.00
59977;DHT22;45837;51.076;3.578;2023-03-01T14:51:23;19.70;33.80
59977;DHT22;45837;51.076;3.578;2023-03-01T14:53:49;19.70;34.10
59977;DHT22;45837;51.076;3.578;2023-03-01T14:56:16;19.70;33.90
59977;DHT22;45837;51.076;3.578;2023-03-01T14:58:44;19.70;34.00
59977;DHT22;45837;51.076;3.578;2023-03-01T15:01:16;19.70;33.80
59977;DHT22;45837;51.076;3.578;2023-03-01T15:03:49;19.60;33.60
59977;DHT22;45837;51.076;3.578;2023-03-01T15:06:19;19.70;32.40
59977;DHT22;45837;51.076;3.578;2023-03-01T15:08:46;19.60;31.40
59977;DHT22;45837;51.076;3.578;2023-03-01T15:13:39;19.50;30.70
59977;DHT22;45837;51.076;3.578;2023-03-01T15:16:11;19.50;31.50
59977;DHT22;45837;51.076;3.578;2023-03-01T15:18:38;19.50;31.80
59977;DHT22;45837;51.076;3.578;2023-03-01T15:21:09;19.50;32.10
59977;DHT22;45837;51.076;3.578;2023-03-01T15:23:35;19.60;32.50
59977;DHT22;45837;51.076;3.578;2023-03-01T15:26:02;19.60;33.00
59977;DHT22;45837;51.076;3.578;2023-03-01T15:28:37;19.50;33.30
59977;DHT22;45837;51.076;3.578;2023-03-01T15:31:19;19.60;34.10
59977;DHT22;45837;51.076;3.578;2023-03-01T15:33:46;19.70;34.40
59977;DHT22;45837;51.076;3.578;2023-03-01T15:38:56;19.70;34.50
59977;DHT22;45837;51.076;3.578;2023-03-01T15:41:27;19.70;34.80
59977;DHT22;45837;51.076;3.578;2023-03-01T15:43:56;19.80;35.60
59977;DHT22;45837;51.076;3.578;2023-03-01T15:46:23;19.80;35.40
59977;DHT22;45837;51.076;3.578;2023-03-01T15:48:52;19.80;35.80
59977;DHT22;45837;51.076;3.578;2023-03-01T15:51:22;19.90;36.00
59977;DHT22;45837;51.076;3.578;2023-03-01T15:53:50;19.90;36.20
59977;DHT22;45837;51.076;3.578;2023-03-01T15:56:16;20.00;36.50
59977;DHT22;45837;51.076;3.578;2023-03-01T15:58:42;20.10;36.70
59977;DHT22;45837;51.076;3.578;2023-03-01T16:01:12;20.10;36.80
59977;DHT22;45837;51.076;3.578;2023-03-01T16:03:38;20.30;37.50
59977;DHT22;45837;51.076;3.578;2023-03-01T16:06:03;20.40;37.20
59977;DHT22;45837;51.076;3.578;2023-03-01T16:08:29;20.50;37.10
59977;DHT22;45837;51.076;3.578;2023-03-01T16:10:55;20.60;37.20
59977;DHT22;45837;51.076;3.578;2023-03-01T16:13:20;20.70;37.30
59977;DHT22;45837;51.076;3.578;2023-03-01T16:15:46;20.80;39.90
59977;DHT22;45837;51.076;3.578;2023-03-01T16:18:12;20.80;39.50
59977;DHT22;45837;51.076;3.578;2023-03-01T16:20:38;21.00;39.50
59977;DHT22;45837;51.076;3.578;2023-03-01T16:23:05;21.00;40.00
59977;DHT22;45837;51.076;3.578;2023-03-01T16:25:31;21.00;40.30
59977;DHT22;45837;51.076;3.578;2023-03-01T16:27:57;21.00;40.50
59977;DHT22;45837;51.076;3.578;2023-03-01T16:30:26;21.10;40.50
59977;DHT22;45837;51.076;3.578;2023-03-01T16:32:52;21.00;40.60
59977;DHT22;45837;51.076;3.578;2023-03-01T16:35:18;21.10;40.50
59977;DHT22;45837;51.076;3.578;2023-03-01T16:37:44;21.10;41.30
59977;DHT22;45837;51.076;3.578;2023-03-01T16:40:18;21.10;40.80
59977;DHT22;45837;51.076;3.578;2023-03-01T16:42:44;21.10;40.70
59977;DHT22;45837;51.076;3.578;2023-03-01T16:45:10;21.10;40.90
59977;DHT22;45837;51.076;3.578;2023-03-01T16:47:35;21.00;41.00
59977;DHT22;45837;51.076;3.578;2023-03-01T16:50:01;21.00;41.00
59977;DHT22;45837;51.076;3.578;2023-03-01T16:52:27;20.90;41.30
59977;DHT22;45837;51.076;3.578;2023-03-01T16:54:52;20.90;41.30
59977;DHT22;45837;51.076;3.578;2023-03-01T16:57:18;20.90;41.40
59977;DHT22;45837;51.076;3.578;2023-03-01T16:59:44;20.90;41.30
59977;DHT22;45837;51.076;3.578;2023-03-01T17:02:11;20.90;41.40
59977;DHT22;45837;51.076;3.578;2023-03-01T17:04:38;21.00;41.40
59977;DHT22;45837;51.076;3.578;2023-03-01T17:07:04;20.90;41.60
59977;DHT22;45837;51.076;3.578;2023-03-01T17:09:29;20.90;41.50
59977;DHT22;45837;51.076;3.578;2023-03-01T17:11:55;20.90;41.60
59977;DHT22;45837;51.076;3.578;2023-03-01T17:14:21;21.00;41.80
59977;DHT22;45837;51.076;3.578;2023-03-01T17:16:46;21.00;41.70
59977;DHT22;45837;51.076;3.578;2023-03-01T17:19:12;20.90;41.50
59977;DHT22;45837;51.076;3.578;2023-03-01T17:21:43;20.90;41.80
59977;DHT22;45837;51.076;3.578;2023-03-01T17:24:09;20.90;42.00
59977;DHT22;45837;51.076;3.578;2023-03-01T17:26:34;20.90;42.10